Pound Ridge, New York
Current Conditions -  °F | °C
As of 9:53 PM on Sunday 23 Nov 2014 (Local Time) from KDXR Reporting Station
Clear Clear  
Wind Chill: 42°   Ceiling: Unl
Heat Index: 42°   Visibility: 10mi
Dew Point: 31°   Wind: 0mph
Humidity: 65%   Direction: NA
Pressure: 30.09"   Gusts: NA
Location:  41.21°N, 73.57°W
Report Text: KDXR 240253Z 00000KT 10SM CLR 06/M01 A3009 RMK AO2 SLP190 T00561006 58015
Loading
Personal Weather Stations






























Interactive Weather Map New forecast layout! Learn more

10-Day Weather Forecast

Advertisements
Track Severe Weather on mobile